• Join FlightAware (Why Join?)
  • Login
  • US Flag 
11:55PM EDT


 

Airport Tracker/Info


-or-


 

Live Flight TrackerFlight Track Log ✈ UPS378 ✈ 05-Dec-2013 ✈ KMIA - MHLM / SAP

Flight Track Log - Related Links

Times and Time Zones

All times are in EST time to prevent confusion due to time zone crossing. See the UPS378 flight status page for this flight to view local times or setup timezone preferences in your user account.

Time Position Orientation Groundspeed Altitude Reporting Facility
EST Latitude Longitude Course Direction KTS MPH feet Rate Location/Type
02:18PM 25.8003 -80.2744 114° Southeast 152 175 900  Level Miami Center
02:19PM 25.7825 -80.2303 114° Southeast 195 224 2,100 1,860 Climbing Miami Center
02:19PM 25.7544 -80.1742 119° Southeast 244 281 4,400 2,220 Climbing Miami Center
02:20PM 25.7425 -80.1553 125° Southeast 247 284 4,600 2,460 Climbing Miami Center
02:21PM 25.6811 -80.1836 203° Southwest 282 325 7,200 2,460 Climbing Miami Center
02:21PM 25.6747 -80.1858 197° South 280 322 7,100 2,460 Descending Miami Center
02:22PM 25.6092 -80.2231 207° Southwest 299 344 9,900 2,160 Climbing Miami Center
02:23PM 25.5269 -80.2600 202° Southwest 311 358 11,500 1,800 Climbing Miami Center
02:24PM 25.4361 -80.3056 204° Southwest 336 387 13,600 2,100 Climbing Miami Center
02:25PM 25.3389 -80.3511 203° Southwest 362 417 15,700 2,100 Climbing Miami Center
02:26PM 25.2456 -80.4106 210° Southwest 375 432 17,800 2,040 Climbing Miami Center
02:27PM 25.1522 -80.4722 211° Southwest 385 443 19,800 2,100 Climbing Miami Center
02:28PM 25.0544 -80.5356 210° Southwest 403 464 22,100 2,100 Climbing Miami Center
02:29PM 24.9525 -80.6014 210° Southwest 417 480 24,000 1,800 Climbing Miami Center
02:30PM 24.8506 -80.6717 212° Southwest 429 494 25,700 1,800 Climbing Miami Center
02:31PM 24.7422 -80.7414 210° Southwest 442 509 27,600 1,740 Climbing Miami Center
02:32PM 24.6317 -80.8133 211° Southwest 453 521 29,200 1,500 Climbing Miami Center
02:33PM 24.5211 -80.8875 211° Southwest 459 528 30,700 1,680 Climbing Miami Center
02:34PM 24.4042 -80.9611 210° Southwest 477 549 32,600 1,860 Climbing Miami Center
02:35PM 24.2892 -81.0350 210° Southwest 477 549 34,500 1,200 Climbing Miami Center
02:36PM 24.1744 -81.1061 209° Southwest 477 549 35,000 240 Climbing Miami Center
02:37PM 24.0594 -81.1819 211° Southwest 482 555 35,000  Level Miami Center
02:38PM 23.9422 -81.2619 212° Southwest 487 560 35,000  Level Miami Center
02:40PM 23.7676 -81.3849 217° Southwest  Level FlightAware Approximate
02:47PM 23.1229 -81.9056 217° Southwest  Level FlightAware Approximate
02:48PM 23.0306 -81.9796 216° Southwest  Level FlightAware Approximate
02:49PM 22.9384 -82.0535 216° Southwest  Level FlightAware Approximate
02:50PM 22.8460 -82.1272 216° Southwest  Level FlightAware Approximate
02:51PM 22.7537 -82.2009 216° Southwest  Level FlightAware Approximate
02:52PM 22.6613 -82.2745 216° Southwest  Level FlightAware Approximate
02:53PM 22.5689 -82.3480 216° Southwest  Level FlightAware Approximate
02:54PM 22.4764 -82.4213 216° Southwest  Level FlightAware Approximate
02:55PM 22.3840 -82.4946 216° Southwest  Level FlightAware Approximate
02:56PM 22.2915 -82.5678 216° Southwest  Level FlightAware Approximate
02:57PM 22.1989 -82.6409 216° Southwest  Level FlightAware Approximate
02:58PM 22.1063 -82.7139 216° Southwest  Level FlightAware Approximate
02:59PM 22.0137 -82.7868 216° Southwest  Level FlightAware Approximate
03:00PM 21.9211 -82.8596 216° Southwest  Level FlightAware Approximate
03:01PM 21.8284 -82.9323 216° Southwest  Level FlightAware Approximate
03:02PM 21.7357 -83.0049 216° Southwest  Level FlightAware Approximate
03:03PM 21.6430 -83.0774 216° Southwest  Level FlightAware Approximate
03:04PM 21.5502 -83.1498 216° Southwest  Level FlightAware Approximate
03:05PM 21.4574 -83.2221 216° Southwest  Level FlightAware Approximate
03:06PM 21.3646 -83.2944 216° Southwest  Level FlightAware Approximate
03:07PM 21.2717 -83.3665 216° Southwest  Level FlightAware Approximate
03:08PM 21.1788 -83.4386 216° Southwest  Level FlightAware Approximate
03:09PM 21.0859 -83.5105 216° Southwest  Level FlightAware Approximate
03:10PM 20.9929 -83.5824 216° Southwest  Level FlightAware Approximate
03:11PM 20.9000 -83.6542 216° Southwest  Level FlightAware Approximate
03:12PM 20.8069 -83.7259 216° Southwest  Level FlightAware Approximate
03:13PM 20.7139 -83.7975 216° Southwest  Level FlightAware Approximate
03:14PM 20.6208 -83.8690 216° Southwest  Level FlightAware Approximate
03:15PM 20.5277 -83.9405 216° Southwest  Level FlightAware Approximate
03:16PM 20.4361 -84.0138 223° Southwest  Level FlightAware Approximate
03:17PM 20.3460 -84.0894 218° Southwest  Level FlightAware Approximate
03:18PM 20.2515 -84.1585 214° Southwest  Level FlightAware Approximate
03:19PM 20.1563 -84.2265 214° Southwest  Level FlightAware Approximate
03:20PM 20.0618 -84.2956 215° Southwest  Level FlightAware Approximate
03:21PM 19.9684 -84.3663 215° Southwest  Level FlightAware Approximate
03:22PM 19.8749 -84.4369 215° Southwest  Level FlightAware Approximate
03:23PM 19.7815 -84.5074 215° Southwest  Level FlightAware Approximate
03:24PM 19.6879 -84.5779 215° Southwest  Level FlightAware Approximate
03:25PM 19.5944 -84.6483 215° Southwest  Level FlightAware Approximate
03:26PM 19.5009 -84.7185 215° Southwest  Level FlightAware Approximate
03:27PM 19.4073 -84.7887 215° Southwest  Level FlightAware Approximate
03:28PM 19.3136 -84.8589 215° Southwest  Level FlightAware Approximate
03:29PM 19.2200 -84.9289 215° Southwest  Level FlightAware Approximate
03:30PM 19.1263 -84.9989 215° Southwest  Level FlightAware Approximate
03:31PM 19.0326 -85.0687 215° Southwest  Level FlightAware Approximate
03:32PM 18.9389 -85.1385 215° Southwest  Level FlightAware Approximate
03:33PM 18.8452 -85.2083 215° Southwest  Level FlightAware Approximate
03:34PM 18.7514 -85.2779 215° Southwest  Level FlightAware Approximate
03:35PM 18.6576 -85.3475 215° Southwest  Level FlightAware Approximate
03:36PM 18.5638 -85.4170 215° Southwest  Level FlightAware Approximate
03:37PM 18.4699 -85.4864 215° Southwest  Level FlightAware Approximate
03:38PM 18.3760 -85.5557 215° Southwest  Level FlightAware Approximate
03:39PM 18.2821 -85.6250 215° Southwest  Level FlightAware Approximate
03:40PM 18.1882 -85.6942 215° Southwest  Level FlightAware Approximate
03:41PM 18.0942 -85.7633 215° Southwest  Level FlightAware Approximate
03:42PM 18.0003 -85.8324 215° Southwest  Level FlightAware Approximate
03:43PM 17.9063 -85.9013 215° Southwest  Level FlightAware Approximate
03:44PM 17.8123 -85.9702 215° Southwest  Level FlightAware Approximate
03:45PM 17.7182 -86.0390 215° Southwest  Level FlightAware Approximate
03:46PM 17.6241 -86.1078 215° Southwest  Level FlightAware Approximate
03:47PM 17.5300 -86.1765 215° Southwest  Level FlightAware Approximate
03:48PM 17.4359 -86.2451 215° Southwest  Level FlightAware Approximate
03:49PM 17.3418 -86.3136 215° Southwest  Level FlightAware Approximate
03:50PM 17.2476 -86.3821 215° Southwest  Level FlightAware Approximate
03:51PM 17.1470 -86.4353 185° South  Level FlightAware Approximate
03:52PM 17.0329 -86.4467 185° South  Level FlightAware Approximate
03:53PM 16.9189 -86.4590 186° South  Level FlightAware Approximate
03:54PM 16.8049 -86.4717 186° South  Level FlightAware Approximate
03:55PM 16.6908 -86.4833 180° South  Level FlightAware Approximate
03:56PM 16.5778 -86.4972 193° South  Level FlightAware Approximate
03:57PM 16.4637 -86.5064 183° South  Level FlightAware Approximate
03:58PM 16.3492 -86.5136 183° South  Level FlightAware Approximate
03:59PM 16.2731 -86.5764 237° Southwest  Level FlightAware Approximate
04:00PM 16.2106 -86.6765 237° Southwest  Level FlightAware Approximate
04:01PM 16.1480 -86.7765 237° Southwest  Level FlightAware Approximate
04:02PM 16.0844 -86.8757 238° Southwest  Level FlightAware Approximate
04:03PM 16.0231 -86.9765 238° Southwest  Level FlightAware Approximate
04:04PM 15.9618 -87.0773 238° Southwest  Level FlightAware Approximate
04:05PM 15.9004 -87.1780 238° Southwest  Level FlightAware Approximate
04:06PM 15.8394 -87.2788 238° Southwest  Level FlightAware Approximate
04:07PM 15.7836 -87.3828 243° Southwest  Level FlightAware Approximate
04:08PM 15.7204 -87.4822 237° Southwest  Level FlightAware Approximate
04:09PM 15.6569 -87.5813 235° Southwest  Level FlightAware Approximate
04:10PM 15.5917 -87.6792 235° Southwest  Level FlightAware Approximate
04:11PM 15.5356 -87.7800 235° Southwest  Level FlightAware Approximate
04:12PM 15.4759 -87.8815 243° Southwest  Level FlightAware Approximate
04:13PM 15.4526 -87.9236 270° West  Level Estimated
04:14PM 15.4526 -87.9236 270° West  Level Estimated
04:15PM 15.4526 -87.9236 270° West  Level Estimated
04:16PM 15.4526 -87.9236 270° West  Level Estimated
04:17PM 15.4526 -87.9236 270° West  Level Estimated
04:18PM 15.4526 -87.9236 270° West  Level Estimated
04:19PM 15.4526 -87.9236 270° West  Level Estimated
04:20PM 15.4526 -87.9236 270° West  Level Estimated
04:21PM 15.4526 -87.9236 270° West  Level Estimated
04:22PM 15.4526 -87.9236 270° West  Level Estimated
04:23PM 15.4526 -87.9236 270° West  Level Estimated
04:24PM 15.4526 -87.9236 270° West  Level Estimated
04:25PM 15.4526 -87.9236 270° West  Level Estimated
04:26PM 15.4526 -87.9236 270° West  Level Estimated
04:27PM 15.4526 -87.9236 270° West  Level Estimated
04:28PM 15.4526 -87.9236 270° West  Level Estimated